This is the latest recevied weather packets stored in our database for station/object WD4IXD. If no packets are shown the sender has not sent any weather packets the latest 10 day(s).
| Time | Temp. | Humidity | Pressure | Rain* | Wind** | Luminosity | Snow |
|---|---|---|---|---|---|---|---|
| 1777887315 | 11.11° C | 39% | 1012.8 hPa | 0 mm | - | 0 W/m² | - |
| 1777887004 | 11.11° C | 39% | 1012.8 hPa | 0 mm | - | 0 W/m² | - |
| 1777886715 | 11.11° C | 39% | 1012.8 hPa | 0 mm | - | 0 W/m² | - |
| 1777886404 | 11.11° C | 39% | 1012.8 hPa | 0 mm | - | 0 W/m² | - |
| 1777886115 | 11.11° C | 40% | 1012.9 hPa | 0 mm | - | 0 W/m² | - |
| 1777885804 | 11.11° C | 40% | 1013 hPa | 0 mm | - | 0 W/m² | - |
| 1777885515 | 11.11° C | 41% | 1013 hPa | 0 mm | - | 0 W/m² | - |
| 1777885204 | 11.11° C | 41% | 1013 hPa | 0 mm | - | 0 W/m² | - |
| 1777884915 | 11.11° C | 44% | 1013.1 hPa | 0 mm | - | 0 W/m² | - |
| 1777884603 | 10.56° C | 47% | 1013.2 hPa | 0 mm | - | 0 W/m² | - |
| 1777884315 | 10.56° C | 48% | 1013.1 hPa | 0 mm | - | 0 W/m² | - |
| 1777884004 | 10.56° C | 45% | 1013.1 hPa | 0 mm | - | 0 W/m² | - |
| 1777883703 | 10.56° C | 45% | 1013.1 hPa | 0 mm | - | 0 W/m² | - |
| 1777883415 | 10.56° C | 44% | 1013.1 hPa | 0 mm | - | 0 W/m² | - |
| 1777883104 | 11.11° C | 42% | 1013.2 hPa | 0 mm | - | 0 W/m² | - |
| 1777882815 | 11.67° C | 41% | 1013.1 hPa | 0 mm | - | 0 W/m² | - |
| 1777882504 | 12.22° C | 39% | 1013.1 hPa | 0 mm | - | 0 W/m² | - |
| 1777882215 | 12.78° C | 37% | 1013.2 hPa | 0 mm | - | 0 W/m² | - |
| 1777881904 | 12.78° C | 36% | 1013.2 hPa | 0 mm | - | 0 W/m² | - |
| 1777881615 | 12.78° C | 36% | 1013.3 hPa | 0 mm | - | 0 W/m² | - |
| 1777881303 | 12.78° C | 36% | 1013.2 hPa | 0 mm | - | 0 W/m² | - |
| 1777881015 | 12.78° C | 36% | 1013.2 hPa | 0 mm | - | 0 W/m² | - |
| 1777880715 | 12.78° C | 35% | 1013.3 hPa | 0 mm | - | 0 W/m² | - |
| 1777880404 | 13.33° C | 35% | 1013.3 hPa | 0 mm | - | 0 W/m² | - |
| 1777880115 | 13.33° C | 34% | 1013.3 hPa | 0 mm | - | 0 W/m² | - |
* Rain latest hour (hover to see other rain measurements)
** Current wind speed in m/s (hover to see current wind gust speed)